sensor_id;sensor_type;location;lat;lon;timestamp;pressure;altitude;pressure_sealevel;temperature;humidity
24422;BME280;12600;53.326;-6.298;2023-01-31T00:01:34;101876.22;;;10.93;77.19
24422;BME280;12600;53.326;-6.298;2023-01-31T00:04:24;101870.47;;;10.95;77.06
24422;BME280;12600;53.326;-6.298;2023-01-31T00:07:13;101883.56;;;10.98;78.29
24422;BME280;12600;53.326;-6.298;2023-01-31T00:10:03;101875.41;;;10.88;77.99
24422;BME280;12600;53.326;-6.298;2023-01-31T00:12:54;101854.13;;;10.80;77.41
24422;BME280;12600;53.326;-6.298;2023-01-31T00:15:43;101872.97;;;10.81;77.77
24422;BME280;12600;53.326;-6.298;2023-01-31T00:18:33;101888.56;;;10.81;78.49
24422;BME280;12600;53.326;-6.298;2023-01-31T00:21:28;101892.34;;;10.95;78.53
24422;BME280;12600;53.326;-6.298;2023-01-31T00:24:17;101856.88;;;10.75;78.11
24422;BME280;12600;53.326;-6.298;2023-01-31T00:27:06;101875.34;;;11.03;77.98
24422;BME280;12600;53.326;-6.298;2023-01-31T00:29:57;101863.88;;;10.96;77.76
24422;BME280;12600;53.326;-6.298;2023-01-31T00:32:47;101859.72;;;11.09;77.51
24422;BME280;12600;53.326;-6.298;2023-01-31T00:35:38;101859.22;;;11.02;77.73
24422;BME280;12600;53.326;-6.298;2023-01-31T00:38:28;101852.88;;;11.06;77.61
24422;BME280;12600;53.326;-6.298;2023-01-31T00:41:18;101859.47;;;11.05;77.93
24422;BME280;12600;53.326;-6.298;2023-01-31T00:44:07;101854.25;;;11.09;77.90
24422;BME280;12600;53.326;-6.298;2023-01-31T00:46:59;101858.34;;;11.06;78.11
24422;BME280;12600;53.326;-6.298;2023-01-31T00:49:49;101866.00;;;11.09;77.38
24422;BME280;12600;53.326;-6.298;2023-01-31T00:52:38;101856.41;;;11.12;77.82
24422;BME280;12600;53.326;-6.298;2023-01-31T00:55:27;101849.63;;;11.04;78.15
24422;BME280;12600;53.326;-6.298;2023-01-31T00:58:17;101850.41;;;11.10;78.13
24422;BME280;12600;53.326;-6.298;2023-01-31T01:01:09;101838.13;;;11.07;77.75
24422;BME280;12600;53.326;-6.298;2023-01-31T01:04:00;101865.69;;;11.16;77.90
24422;BME280;12600;53.326;-6.298;2023-01-31T01:06:52;101840.75;;;11.23;77.99
24422;BME280;12600;53.326;-6.298;2023-01-31T01:09:42;101842.44;;;11.13;78.15
24422;BME280;12600;53.326;-6.298;2023-01-31T01:12:31;101824.69;;;11.16;77.80
24422;BME280;12600;53.326;-6.298;2023-01-31T01:15:21;101838.28;;;11.21;77.68
24422;BME280;12600;53.326;-6.298;2023-01-31T01:18:11;101792.09;;;11.14;77.81
24422;BME280;12600;53.326;-6.298;2023-01-31T01:21:07;101816.50;;;11.11;78.23
24422;BME280;12600;53.326;-6.298;2023-01-31T01:23:59;101814.78;;;11.20;78.25
24422;BME280;12600;53.326;-6.298;2023-01-31T01:26:49;101829.88;;;11.12;79.25
24422;BME280;12600;53.326;-6.298;2023-01-31T01:29:39;101816.81;;;11.04;80.09
24422;BME280;12600;53.326;-6.298;2023-01-31T01:32:28;101819.00;;;11.02;80.73
24422;BME280;12600;53.326;-6.298;2023-01-31T01:35:17;101829.38;;;11.05;80.24
24422;BME280;12600;53.326;-6.298;2023-01-31T01:38:08;101830.03;;;10.92;81.77
24422;BME280;12600;53.326;-6.298;2023-01-31T01:40:59;101812.00;;;10.86;82.34
24422;BME280;12600;53.326;-6.298;2023-01-31T01:43:52;101810.59;;;10.93;82.17
24422;BME280;12600;53.326;-6.298;2023-01-31T01:46:43;101804.59;;;10.91;82.57
24422;BME280;12600;53.326;-6.298;2023-01-31T01:49:35;101791.31;;;10.70;83.62
24422;BME280;12600;53.326;-6.298;2023-01-31T01:52:27;101787.78;;;10.69;84.30
24422;BME280;12600;53.326;-6.298;2023-01-31T01:55:24;101786.41;;;10.67;84.58
24422;BME280;12600;53.326;-6.298;2023-01-31T01:58:21;101799.53;;;10.70;84.64
24422;BME280;12600;53.326;-6.298;2023-01-31T02:01:12;101801.66;;;10.83;84.14
24422;BME280;12600;53.326;-6.298;2023-01-31T02:04:11;101786.31;;;10.82;84.08
24422;BME280;12600;53.326;-6.298;2023-01-31T02:07:03;101782.31;;;10.69;85.18
24422;BME280;12600;53.326;-6.298;2023-01-31T02:09:58;101762.88;;;10.71;85.11
24422;BME280;12600;53.326;-6.298;2023-01-31T02:12:51;101789.13;;;10.72;85.34
24422;BME280;12600;53.326;-6.298;2023-01-31T02:15:41;101782.56;;;10.73;85.26
24422;BME280;12600;53.326;-6.298;2023-01-31T02:18:30;101780.34;;;10.75;85.94
24422;BME280;12600;53.326;-6.298;2023-01-31T02:21:54;101779.00;;;10.72;86.27
24422;BME280;12600;53.326;-6.298;2023-01-31T02:29:08;101786.91;;;10.79;86.04
24422;BME280;12600;53.326;-6.298;2023-01-31T02:32:47;101783.06;;;10.80;86.13
24422;BME280;12600;53.326;-6.298;2023-01-31T02:35:51;101792.44;;;10.69;86.31
24422;BME280;12600;53.326;-6.298;2023-01-31T02:38:57;101775.16;;;10.73;86.87
24422;BME280;12600;53.326;-6.298;2023-01-31T02:41:55;101773.47;;;10.82;86.44
24422;BME280;12600;53.326;-6.298;2023-01-31T02:44:51;101777.03;;;10.83;86.90
24422;BME280;12600;53.326;-6.298;2023-01-31T02:48:02;101765.34;;;10.72;87.48
24422;BME280;12600;53.326;-6.298;2023-01-31T02:51:06;101766.59;;;10.90;86.92
24422;BME280;12600;53.326;-6.298;2023-01-31T02:54:10;101756.00;;;10.83;87.57
24422;BME280;12600;53.326;-6.298;2023-01-31T02:57:02;101735.78;;;10.79;87.23
24422;BME280;12600;53.326;-6.298;2023-01-31T02:59:51;101755.03;;;10.98;87.37
24422;BME280;12600;53.326;-6.298;2023-01-31T03:02:40;101769.88;;;10.92;87.72
24422;BME280;12600;53.326;-6.298;2023-01-31T03:05:31;101756.13;;;11.02;88.34
24422;BME280;12600;53.326;-6.298;2023-01-31T03:08:20;101768.16;;;11.01;87.74
24422;BME280;12600;53.326;-6.298;2023-01-31T03:11:10;101759.34;;;11.09;87.15
24422;BME280;12600;53.326;-6.298;2023-01-31T03:14:06;101734.31;;;10.92;88.16
24422;BME280;12600;53.326;-6.298;2023-01-31T03:17:01;101761.28;;;11.04;88.13
24422;BME280;12600;53.326;-6.298;2023-01-31T03:20:17;101775.75;;;11.09;88.11
24422;BME280;12600;53.326;-6.298;2023-01-31T03:23:12;101759.09;;;11.06;88.45
24422;BME280;12600;53.326;-6.298;2023-01-31T03:26:06;101762.38;;;11.08;88.48
24422;BME280;12600;53.326;-6.298;2023-01-31T03:28:57;101773.31;;;11.08;88.76
24422;BME280;12600;53.326;-6.298;2023-01-31T03:31:54;101753.66;;;11.01;89.08
24422;BME280;12600;53.326;-6.298;2023-01-31T03:34:46;101769.16;;;11.15;88.47
24422;BME280;12600;53.326;-6.298;2023-01-31T03:37:42;101769.16;;;11.15;88.87
24422;BME280;12600;53.326;-6.298;2023-01-31T03:40:45;101766.41;;;11.15;88.90
24422;BME280;12600;53.326;-6.298;2023-01-31T03:43:41;101779.91;;;11.02;89.08
24422;BME280;12600;53.326;-6.298;2023-01-31T03:46:36;101785.13;;;10.98;90.56
24422;BME280;12600;53.326;-6.298;2023-01-31T03:49:28;101781.84;;;11.01;90.54
24422;BME280;12600;53.326;-6.298;2023-01-31T03:52:24;101756.03;;;11.12;89.90
24422;BME280;12600;53.326;-6.298;2023-01-31T03:55:17;101761.69;;;11.21;89.67
24422;BME280;12600;53.326;-6.298;2023-01-31T03:58:11;101777.41;;;11.05;90.87
24422;BME280;12600;53.326;-6.298;2023-01-31T04:01:07;101756.41;;;11.01;91.59
24422;BME280;12600;53.326;-6.298;2023-01-31T04:04:04;101775.00;;;10.99;91.55
24422;BME280;12600;53.326;-6.298;2023-01-31T04:06:55;101784.88;;;10.95;92.33
24422;BME280;12600;53.326;-6.298;2023-01-31T04:09:45;101763.00;;;10.95;91.66
24422;BME280;12600;53.326;-6.298;2023-01-31T04:12:35;101773.56;;;11.06;92.18
24422;BME280;12600;53.326;-6.298;2023-01-31T04:15:26;101785.31;;;11.12;91.56
24422;BME280;12600;53.326;-6.298;2023-01-31T04:18:15;101792.59;;;11.21;92.71
24422;BME280;12600;53.326;-6.298;2023-01-31T04:21:05;101805.84;;;11.09;92.98
24422;BME280;12600;53.326;-6.298;2023-01-31T04:23:54;101808.50;;;11.19;92.92
24422;BME280;12600;53.326;-6.298;2023-01-31T04:26:44;101808.50;;;11.19;90.81
24422;BME280;12600;53.326;-6.298;2023-01-31T04:29:33;101821.75;;;11.02;89.45
24422;BME280;12600;53.326;-6.298;2023-01-31T04:32:24;101820.22;;;10.86;87.61
24422;BME280;12600;53.326;-6.298;2023-01-31T04:35:14;101828.13;;;10.87;87.97
24422;BME280;12600;53.326;-6.298;2023-01-31T04:38:03;101827.59;;;10.85;87.63
24422;BME280;12600;53.326;-6.298;2023-01-31T04:40:52;101835.44;;;10.97;87.76
24422;BME280;12600;53.326;-6.298;2023-01-31T04:43:41;101847.59;;;10.76;86.24
24422;BME280;12600;53.326;-6.298;2023-01-31T04:46:31;101838.06;;;10.68;84.24
24422;BME280;12600;53.326;-6.298;2023-01-31T04:49:21;101845.47;;;10.57;82.75
24422;BME280;12600;53.326;-6.298;2023-01-31T04:52:11;101846.66;;;10.41;82.30
24422;BME280;12600;53.326;-6.298;2023-01-31T04:55:00;101842.84;;;10.37;81.07
24422;BME280;12600;53.326;-6.298;2023-01-31T04:57:49;101848.03;;;10.33;80.36
24422;BME280;12600;53.326;-6.298;2023-01-31T05:00:38;101859.81;;;10.14;79.78
24422;BME280;12600;53.326;-6.298;2023-01-31T05:03:28;101855.97;;;10.15;79.31
24422;BME280;12600;53.326;-6.298;2023-01-31T05:06:19;101862.56;;;10.03;78.91
24422;BME280;12600;53.326;-6.298;2023-01-31T05:09:08;101838.00;;;9.93;78.64
24422;BME280;12600;53.326;-6.298;2023-01-31T05:11:58;101858.22;;;9.87;78.45
24422;BME280;12600;53.326;-6.298;2023-01-31T05:14:47;101846.75;;;9.85;77.98
24422;BME280;12600;53.326;-6.298;2023-01-31T05:17:38;101866.66;;;9.86;77.71
24422;BME280;12600;53.326;-6.298;2023-01-31T05:20:27;101857.41;;;9.76;77.06
24422;BME280;12600;53.326;-6.298;2023-01-31T05:23:19;101858.25;;;9.72;77.56
24422;BME280;12600;53.326;-6.298;2023-01-31T05:26:09;101869.41;;;9.70;76.90
24422;BME280;12600;53.326;-6.298;2023-01-31T05:28:58;101849.50;;;9.65;76.44
24422;BME280;12600;53.326;-6.298;2023-01-31T05:31:51;101841.28;;;9.70;75.52
24422;BME280;12600;53.326;-6.298;2023-01-31T05:34:40;101842.94;;;9.61;75.16
24422;BME280;12600;53.326;-6.298;2023-01-31T05:37:29;101846.78;;;9.55;75.58
24422;BME280;12600;53.326;-6.298;2023-01-31T05:40:21;101835.59;;;9.56;75.81
24422;BME280;12600;53.326;-6.298;2023-01-31T05:43:10;101836.13;;;9.48;75.99
24422;BME280;12600;53.326;-6.298;2023-01-31T05:45:59;101836.94;;;9.53;74.84
24422;BME280;12600;53.326;-6.298;2023-01-31T05:48:49;101822.22;;;9.55;75.73
24422;BME280;12600;53.326;-6.298;2023-01-31T05:51:38;101821.66;;;9.42;75.47
24422;BME280;12600;53.326;-6.298;2023-01-31T05:54:28;101822.22;;;9.49;75.85
24422;BME280;12600;53.326;-6.298;2023-01-31T05:57:19;101825.47;;;9.36;75.43
24422;BME280;12600;53.326;-6.298;2023-01-31T06:00:10;101813.50;;;9.32;76.04
24422;BME280;12600;53.326;-6.298;2023-01-31T06:02:59;101819.47;;;9.44;76.15
24422;BME280;12600;53.326;-6.298;2023-01-31T06:05:49;101820.56;;;9.43;76.56
24422;BME280;12600;53.326;-6.298;2023-01-31T06:08:39;101802.03;;;9.45;76.76
24422;BME280;12600;53.326;-6.298;2023-01-31T06:11:29;101815.66;;;9.50;77.09
24422;BME280;12600;53.326;-6.298;2023-01-31T06:14:21;101830.97;;;9.46;78.19
24422;BME280;12600;53.326;-6.298;2023-01-31T06:17:11;101829.31;;;9.56;78.50
24422;BME280;12600;53.326;-6.298;2023-01-31T06:20:00;101845.13;;;9.48;78.90
24422;BME280;12600;53.326;-6.298;2023-01-31T06:22:50;101829.28;;;9.45;78.48
24422;BME280;12600;53.326;-6.298;2023-01-31T06:25:39;101824.94;;;9.39;78.43
24422;BME280;12600;53.326;-6.298;2023-01-31T06:28:28;101842.94;;;9.50;78.81
24422;BME280;12600;53.326;-6.298;2023-01-31T06:31:20;101847.31;;;9.51;78.32
24422;BME280;12600;53.326;-6.298;2023-01-31T06:34:10;101817.59;;;9.40;79.53
24422;BME280;12600;53.326;-6.298;2023-01-31T06:36:59;101825.22;;;9.63;79.39
24422;BME280;12600;53.326;-6.298;2023-01-31T06:39:48;101827.41;;;9.56;80.21
24422;BME280;12600;53.326;-6.298;2023-01-31T06:42:38;101844.59;;;9.51;79.61
24422;BME280;12600;53.326;-6.298;2023-01-31T06:45:27;101845.94;;;9.59;78.56
24422;BME280;12600;53.326;-6.298;2023-01-31T06:48:18;101846.22;;;9.52;78.56
24422;BME280;12600;53.326;-6.298;2023-01-31T06:51:08;101839.13;;;9.51;78.71
24422;BME280;12600;53.326;-6.298;2023-01-31T06:53:57;101844.59;;;9.51;78.60
24422;BME280;12600;53.326;-6.298;2023-01-31T06:56:46;101831.22;;;9.55;78.14
24422;BME280;12600;53.326;-6.298;2023-01-31T06:59:36;101828.75;;;9.53;77.50
24422;BME280;12600;53.326;-6.298;2023-01-31T07:02:25;101840.75;;;9.52;77.33
24422;BME280;12600;53.326;-6.298;2023-01-31T07:05:16;101844.03;;;9.44;77.84
24422;BME280;12600;53.326;-6.298;2023-01-31T07:08:06;101844.59;;;9.46;77.98
24422;BME280;12600;53.326;-6.298;2023-01-31T07:10:55;101849.78;;;9.48;76.76
24422;BME280;12600;53.326;-6.298;2023-01-31T07:13:45;101856.59;;;9.56;76.79
24422;BME280;12600;53.326;-6.298;2023-01-31T07:16:34;101873.78;;;9.56;75.61
24422;BME280;12600;53.326;-6.298;2023-01-31T07:19:25;101876.25;;;9.58;76.58
24422;BME280;12600;53.326;-6.298;2023-01-31T07:22:15;101882.22;;;9.60;76.42
24422;BME280;12600;53.326;-6.298;2023-01-31T07:25:06;101876.50;;;9.56;75.47
24422;BME280;12600;53.326;-6.298;2023-01-31T07:27:55;101894.25;;;9.48;76.82
24422;BME280;12600;53.326;-6.298;2023-01-31T07:30:45;101892.34;;;9.49;75.93
24422;BME280;12600;53.326;-6.298;2023-01-31T07:33:35;101909.22;;;9.46;75.87
24422;BME280;12600;53.326;-6.298;2023-01-31T07:36:25;101890.69;;;9.48;75.88
24422;BME280;12600;53.326;-6.298;2023-01-31T07:39:16;101905.69;;;9.45;76.12
24422;BME280;12600;53.326;-6.298;2023-01-31T07:42:05;101911.94;;;9.46;75.57
24422;BME280;12600;53.326;-6.298;2023-01-31T07:44:56;101908.69;;;9.54;75.51
24422;BME280;12600;53.326;-6.298;2023-01-31T07:48:04;101920.16;;;9.51;76.21
24422;BME280;12600;53.326;-6.298;2023-01-31T07:50:58;101916.03;;;9.38;76.56
24422;BME280;12600;53.326;-6.298;2023-01-31T07:53:48;101925.88;;;9.60;76.92
24422;BME280;12600;53.326;-6.298;2023-01-31T07:56:38;101928.34;;;9.61;76.25
24422;BME280;12600;53.326;-6.298;2023-01-31T07:59:28;101925.34;;;9.68;76.33
24422;BME280;12600;53.326;-6.298;2023-01-31T08:02:17;101931.38;;;9.75;76.29
24422;BME280;12600;53.326;-6.298;2023-01-31T08:05:32;101936.56;;;9.71;76.33
24422;BME280;12600;53.326;-6.298;2023-01-31T08:08:21;101931.91;;;9.67;75.55
24422;BME280;12600;53.326;-6.298;2023-01-31T08:11:11;101916.03;;;9.38;76.27
24422;BME280;12600;53.326;-6.298;2023-01-31T08:14:02;101927.25;;;9.47;76.34
24422;BME280;12600;53.326;-6.298;2023-01-31T08:16:51;101935.97;;;9.49;77.24
24422;BME280;12600;53.326;-6.298;2023-01-31T08:19:41;101942.81;;;9.46;76.98
24422;BME280;12600;53.326;-6.298;2023-01-31T08:22:30;101944.44;;;9.58;77.17
24422;BME280;12600;53.326;-6.298;2023-01-31T08:25:19;101942.28;;;9.55;77.13
24422;BME280;12600;53.326;-6.298;2023-01-31T08:28:10;101954.00;;;9.55;77.09
24422;BME280;12600;53.326;-6.298;2023-01-31T08:31:00;101958.13;;;9.63;77.74
24422;BME280;12600;53.326;-6.298;2023-01-31T08:33:56;101950.19;;;9.66;77.02
24422;BME280;12600;53.326;-6.298;2023-01-31T08:36:45;101952.63;;;9.47;78.08
24422;BME280;12600;53.326;-6.298;2023-01-31T08:39:35;101945.00;;;9.60;76.64
24422;BME280;12600;53.326;-6.298;2023-01-31T08:42:24;101941.72;;;9.58;77.12
24422;BME280;12600;53.326;-6.298;2023-01-31T08:45:13;101944.16;;;9.44;78.02
24422;BME280;12600;53.326;-6.298;2023-01-31T08:48:05;101938.72;;;9.49;77.51
24422;BME280;12600;53.326;-6.298;2023-01-31T08:50:54;101942.50;;;9.43;78.23
24422;BME280;12600;53.326;-6.298;2023-01-31T08:53:44;101944.97;;;9.39;78.34
24422;BME280;12600;53.326;-6.298;2023-01-31T08:56:33;101929.69;;;9.33;79.06
24422;BME280;12600;53.326;-6.298;2023-01-31T08:59:22;101943.06;;;9.40;78.42
24422;BME280;12600;53.326;-6.298;2023-01-31T09:02:12;101937.59;;;9.35;79.37
24422;BME280;12600;53.326;-6.298;2023-01-31T09:05:03;101938.66;;;9.29;78.78
24422;BME280;12600;53.326;-6.298;2023-01-31T09:07:54;101943.03;;;9.35;79.51
24422;BME280;12600;53.326;-6.298;2023-01-31T09:10:49;101950.41;;;9.34;79.75
24422;BME280;12600;53.326;-6.298;2023-01-31T09:13:39;101963.78;;;9.41;79.66
24422;BME280;12600;53.326;-6.298;2023-01-31T09:16:29;101962.41;;;9.38;79.13
24422;BME280;12600;53.326;-6.298;2023-01-31T09:19:18;101968.44;;;9.50;78.85
24422;BME280;12600;53.326;-6.298;2023-01-31T09:22:10;101975.00;;;9.55;78.10
24422;BME280;12600;53.326;-6.298;2023-01-31T09:25:00;101974.47;;;9.63;78.07
24422;BME280;12600;53.326;-6.298;2023-01-31T09:27:51;101979.94;;;9.68;77.87
24422;BME280;12600;53.326;-6.298;2023-01-31T09:30:41;101989.75;;;9.59;77.44
24422;BME280;12600;53.326;-6.298;2023-01-31T09:33:31;101989.50;;;9.86;76.64
24422;BME280;12600;53.326;-6.298;2023-01-31T09:36:21;101994.97;;;9.91;76.24
24422;BME280;12600;53.326;-6.298;2023-01-31T09:39:13;102007.53;;;10.07;76.02
24422;BME280;12600;53.326;-6.298;2023-01-31T09:42:15;102007.81;;;9.95;75.50
24422;BME280;12600;53.326;-6.298;2023-01-31T09:45:11;102024.19;;;10.00;74.50
24422;BME280;12600;53.326;-6.298;2023-01-31T09:48:02;102005.38;;;10.04;73.60
24422;BME280;12600;53.326;-6.298;2023-01-31T09:50:54;102010.28;;;10.12;73.40
24422;BME280;12600;53.326;-6.298;2023-01-31T09:53:45;102015.47;;;9.98;72.58
24422;BME280;12600;53.326;-6.298;2023-01-31T09:56:41;102019.56;;;9.96;71.41
24422;BME280;12600;53.326;-6.298;2023-01-31T09:59:42;101995.53;;;9.88;72.03
24422;BME280;12600;53.326;-6.298;2023-01-31T10:03:25;101998.78;;;9.85;71.00
24422;BME280;12600;53.326;-6.298;2023-01-31T10:06:23;102010.50;;;9.70;70.94
24422;BME280;12600;53.326;-6.298;2023-01-31T10:09:19;102011.63;;;9.79;71.47
24422;BME280;12600;53.326;-6.298;2023-01-31T10:12:17;102000.94;;;9.67;70.89
24422;BME280;12600;53.326;-6.298;2023-01-31T10:15:15;102002.88;;;9.82;70.56
24422;BME280;12600;53.326;-6.298;2023-01-31T10:18:14;101995.50;;;9.82;70.20
24422;BME280;12600;53.326;-6.298;2023-01-31T10:21:09;102022.00;;;9.87;70.75
24422;BME280;12600;53.326;-6.298;2023-01-31T10:24:03;102015.16;;;9.85;70.40
24422;BME280;12600;53.326;-6.298;2023-01-31T10:27:02;102022.53;;;9.79;69.68
24422;BME280;12600;53.326;-6.298;2023-01-31T10:29:55;102038.66;;;9.91;68.68
24422;BME280;12600;53.326;-6.298;2023-01-31T10:32:48;102035.66;;;9.92;67.98
24422;BME280;12600;53.326;-6.298;2023-01-31T10:35:41;102046.59;;;9.87;67.32
24422;BME280;12600;53.326;-6.298;2023-01-31T10:38:36;102077.13;;;9.84;66.98
24422;BME280;12600;53.326;-6.298;2023-01-31T10:41:43;102064.59;;;9.93;66.04
24422;BME280;12600;53.326;-6.298;2023-01-31T10:44:51;102070.59;;;10.00;65.74
24422;BME280;12600;53.326;-6.298;2023-01-31T10:47:49;102090.56;;;10.16;65.46
24422;BME280;12600;53.326;-6.298;2023-01-31T10:50:54;102090.31;;;10.13;64.22
24422;BME280;12600;53.326;-6.298;2023-01-31T10:53:58;102071.75;;;10.25;63.76
24422;BME280;12600;53.326;-6.298;2023-01-31T10:56:52;102086.25;;;10.30;62.98
24422;BME280;12600;53.326;-6.298;2023-01-31T10:59:46;102068.50;;;10.33;61.97
24422;BME280;12600;53.326;-6.298;2023-01-31T11:02:36;102069.34;;;10.44;62.70
24422;BME280;12600;53.326;-6.298;2023-01-31T11:05:28;102069.06;;;10.45;62.74
24422;BME280;12600;53.326;-6.298;2023-01-31T11:08:29;102068.50;;;10.43;63.35
24422;BME280;12600;53.326;-6.298;2023-01-31T11:11:22;102072.88;;;10.49;63.74
24422;BME280;12600;53.326;-6.298;2023-01-31T11:14:17;102094.44;;;10.56;64.00
24422;BME280;12600;53.326;-6.298;2023-01-31T11:17:14;102081.31;;;10.58;64.13
24422;BME280;12600;53.326;-6.298;2023-01-31T11:20:06;102086.78;;;10.58;63.67
24422;BME280;12600;53.326;-6.298;2023-01-31T11:23:00;102073.41;;;10.56;63.75
24422;BME280;12600;53.326;-6.298;2023-01-31T11:25:51;102067.41;;;10.54;63.03
24422;BME280;12600;53.326;-6.298;2023-01-31T11:28:41;102082.44;;;10.52;63.15
24422;BME280;12600;53.326;-6.298;2023-01-31T11:31:40;102086.00;;;10.52;62.99
24422;BME280;12600;53.326;-6.298;2023-01-31T11:34:32;102090.63;;;10.57;62.45
24422;BME280;12600;53.326;-6.298;2023-01-31T11:37:21;102074.47;;;10.86;61.99
24422;BME280;12600;53.326;-6.298;2023-01-31T11:40:25;102080.50;;;11.63;60.41
24422;BME280;12600;53.326;-6.298;2023-01-31T11:43:25;102082.19;;;12.08;58.73
24422;BME280;12600;53.326;-6.298;2023-01-31T11:46:15;102087.28;;;12.59;55.85
24422;BME280;12600;53.326;-6.298;2023-01-31T11:49:11;102075.00;;;12.85;54.04
24422;BME280;12600;53.326;-6.298;2023-01-31T11:52:10;102078.44;;;13.25;52.90
24422;BME280;12600;53.326;-6.298;2023-01-31T11:55:05;102072.03;;;13.54;51.97
24422;BME280;12600;53.326;-6.298;2023-01-31T11:57:59;102066.44;;;13.64;50.72
24422;BME280;12600;53.326;-6.298;2023-01-31T12:00:55;102050.31;;;13.76;50.20
24422;BME280;12600;53.326;-6.298;2023-01-31T12:03:46;102057.22;;;13.92;50.24
24422;BME280;12600;53.326;-6.298;2023-01-31T12:07:00;102065.53;;;14.06;48.12
24422;BME280;12600;53.326;-6.298;2023-01-31T12:09:49;102063.47;;;13.98;47.97
24422;BME280;12600;53.326;-6.298;2023-01-31T12:12:42;102082.53;;;14.46;48.98
24422;BME280;12600;53.326;-6.298;2023-01-31T12:15:36;102057.56;;;14.23;48.16
24422;BME280;12600;53.326;-6.298;2023-01-31T12:18:58;102046.00;;;14.08;46.42
24422;BME280;12600;53.326;-6.298;2023-01-31T12:21:59;102069.53;;;14.33;47.01
24422;BME280;12600;53.326;-6.298;2023-01-31T12:25:02;102045.25;;;14.21;47.04
24422;BME280;12600;53.326;-6.298;2023-01-31T12:28:05;101984.94;;;14.11;46.77
24422;BME280;12600;53.326;-6.298;2023-01-31T12:31:22;102046.59;;;14.56;45.81
24422;BME280;12600;53.326;-6.298;2023-01-31T12:34:33;102051.91;;;14.52;46.51
24422;BME280;12600;53.326;-6.298;2023-01-31T12:37:57;102042.94;;;14.28;46.20
24422;BME280;12600;53.326;-6.298;2023-01-31T12:40:50;102052.81;;;14.48;45.74
24422;BME280;12600;53.326;-6.298;2023-01-31T12:44:06;102044.38;;;14.07;45.93
24422;BME280;12600;53.326;-6.298;2023-01-31T12:47:25;102041.25;;;13.94;47.14
24422;BME280;12600;53.326;-6.298;2023-01-31T12:50:29;102053.56;;;13.78;47.32
24422;BME280;12600;53.326;-6.298;2023-01-31T12:53:32;102058.47;;;13.62;46.85
24422;BME280;12600;53.326;-6.298;2023-01-31T12:56:53;102040.66;;;13.60;46.92
24422;BME280;12600;53.326;-6.298;2023-01-31T12:59:52;102044.03;;;13.33;46.54
24422;BME280;12600;53.326;-6.298;2023-01-31T13:03:02;102055.41;;;13.21;46.97
24422;BME280;12600;53.326;-6.298;2023-01-31T13:05:59;102043.56;;;13.02;47.56
24422;BME280;12600;53.326;-6.298;2023-01-31T13:08:54;102035.44;;;13.15;47.05
24422;BME280;12600;53.326;-6.298;2023-01-31T13:12:00;102032.59;;;13.26;46.99
24422;BME280;12600;53.326;-6.298;2023-01-31T13:15:01;102034.81;;;13.24;47.59
24422;BME280;12600;53.326;-6.298;2023-01-31T13:17:59;102043.19;;;12.84;47.62
24422;BME280;12600;53.326;-6.298;2023-01-31T13:20:55;102029.78;;;12.54;47.80
24422;BME280;12600;53.326;-6.298;2023-01-31T13:23:50;102019.78;;;12.68;48.90
24422;BME280;12600;53.326;-6.298;2023-01-31T13:26:45;102030.41;;;12.99;49.19
24422;BME280;12600;53.326;-6.298;2023-01-31T13:29:39;102028.41;;;12.80;47.64
24422;BME280;12600;53.326;-6.298;2023-01-31T13:32:34;102036.59;;;12.56;46.56
24422;BME280;12600;53.326;-6.298;2023-01-31T13:35:31;102053.91;;;12.18;47.58
24422;BME280;12600;53.326;-6.298;2023-01-31T13:38:23;102051.28;;;12.02;48.38
24422;BME280;12600;53.326;-6.298;2023-01-31T13:41:24;102040.25;;;11.68;49.02
24422;BME280;12600;53.326;-6.298;2023-01-31T13:44:15;102033.59;;;11.85;49.74
24422;BME280;12600;53.326;-6.298;2023-01-31T13:47:13;102043.44;;;11.86;50.27
24422;BME280;12600;53.326;-6.298;2023-01-31T13:50:09;102023.75;;;11.78;49.99
24422;BME280;12600;53.326;-6.298;2023-01-31T13:53:12;102018.03;;;11.75;49.82
24422;BME280;12600;53.326;-6.298;2023-01-31T13:56:08;102029.44;;;11.92;49.96
24422;BME280;12600;53.326;-6.298;2023-01-31T13:58:59;102020.31;;;11.58;51.47
24422;BME280;12600;53.326;-6.298;2023-01-31T14:01:49;102031.06;;;11.49;52.76
24422;BME280;12600;53.326;-6.298;2023-01-31T14:04:39;102032.44;;;11.41;53.32
24422;BME280;12600;53.326;-6.298;2023-01-31T14:07:28;102029.66;;;11.52;53.53
24422;BME280;12600;53.326;-6.298;2023-01-31T14:10:41;102042.75;;;11.60;53.30
24422;BME280;12600;53.326;-6.298;2023-01-31T14:13:43;102022.84;;;11.98;52.19
24422;BME280;12600;53.326;-6.298;2023-01-31T14:16:39;102020.41;;;12.26;50.71
24422;BME280;12600;53.326;-6.298;2023-01-31T14:20:02;102038.16;;;12.68;50.51
24422;BME280;12600;53.326;-6.298;2023-01-31T14:23:42;102025.78;;;12.07;50.87
24422;BME280;12600;53.326;-6.298;2023-01-31T14:26:52;102025.13;;;11.76;51.63
24422;BME280;12600;53.326;-6.298;2023-01-31T14:29:42;102030.41;;;11.62;51.93
24422;BME280;12600;53.326;-6.298;2023-01-31T14:32:35;102011.91;;;11.44;52.86
24422;BME280;12600;53.326;-6.298;2023-01-31T14:36:06;102023.53;;;11.15;53.41
24422;BME280;12600;53.326;-6.298;2023-01-31T14:46:51;102029.78;;;11.21;53.63
24422;BME280;12600;53.326;-6.298;2023-01-31T14:50:12;102040.97;;;11.30;53.37
24422;BME280;12600;53.326;-6.298;2023-01-31T14:53:40;102025.50;;;11.59;53.25
24422;BME280;12600;53.326;-6.298;2023-01-31T14:56:52;102026.56;;;11.68;53.46
24422;BME280;12600;53.326;-6.298;2023-01-31T14:59:53;102031.13;;;11.78;52.97
24422;BME280;12600;53.326;-6.298;2023-01-31T15:02:51;102022.25;;;11.57;53.87
24422;BME280;12600;53.326;-6.298;2023-01-31T15:05:47;102019.56;;;11.47;52.89
24422;BME280;12600;53.326;-6.298;2023-01-31T15:08:45;102020.56;;;11.66;53.05
24422;BME280;12600;53.326;-6.298;2023-01-31T15:11:40;102032.25;;;11.77;52.35
24422;BME280;12600;53.326;-6.298;2023-01-31T15:14:34;102042.91;;;11.84;51.84
24422;BME280;12600;53.326;-6.298;2023-01-31T15:17:28;102031.56;;;12.00;51.32